Terminal Aerodrome Forecast
Issued by NWS

Home | Current Version | Previous Version | Text Only | Print | Product List | Glossary On
Versions: 1 2 3 4 5 6 7 8 9 10 11 12 13 14 15 16 17 18 19 20
000
FTUS42 KFFC 030323 AAA
TAFRYY
TAF AMD
KRYY 030323Z 0303/0324 34003KT P6SM SCT025 BKN070
      TEMPO 0303/0306 -RA BKN020
     FM030600 00000KT 6SM BR OVC010
     FM030900 04003KT 3SM -RADZ BR OVC007
     FM031100 07004KT 2SM -RADZ BR OVC004
     FM031600 10005KT 3SM -RADZ BR OVC005
     FM032100 10006KT 4SM BR OVC007=

USA.gov is the U.S. government's official web portal to all federal, state and local government web resources and services.